This is the latest recevied weather packets stored in our database for station/object VU3ZAG-WX. If no packets are shown the sender has not sent any weather packets the latest 10 day(s).
| Time | Temp. | Humidity | Pressure | Rain* | Wind** | Luminosity | Snow |
|---|---|---|---|---|---|---|---|
| 1778318671 | 36.67° C | 51% | 1006.7 hPa | - | - | - | - |
| 1778315643 | 35.56° C | 53% | 1007.4 hPa | - | - | - | - |
| 1778315036 | 35.56° C | 58% | 1007.6 hPa | - | - | - | - |
| 1778314428 | 36.11° C | 55% | 1007.8 hPa | - | - | - | - |
| 1778313824 | 36.11° C | 53% | 1008 hPa | - | - | - | - |
| 1778313218 | 36.11° C | 53% | 1008.2 hPa | - | - | - | - |
| 1778312612 | 36.11° C | 58% | 1008.4 hPa | - | - | - | - |
| 1778312006 | 36.67° C | 54% | 1008.6 hPa | - | - | - | - |
| 1778311395 | 36.67° C | 54% | 1008.7 hPa | - | - | - | - |
| 1778310790 | 36.67° C | 53% | 1008.9 hPa | - | - | - | - |
| 1778308972 | 36.11° C | 50% | 1009.1 hPa | - | - | - | - |
| 1778308365 | 35.56° C | 53% | 1009.2 hPa | - | - | - | - |
| 1778307757 | 35.56° C | 55% | 1009.2 hPa | - | - | - | - |
| 1778306402 | 33.33° C | 55% | 1009.3 hPa | - | - | - | - |
| 1778290340 | 28.33° C | 73% | 1009.1 hPa | - | - | - | - |
| 1778289735 | 28.33° C | 73% | 1009.1 hPa | - | - | - | - |
| 1778289130 | 28.33° C | 73% | 1009.1 hPa | - | - | - | - |
| 1778288525 | 28.33° C | 73% | 1009.1 hPa | - | - | - | - |
| 1778287921 | 28.33° C | 73% | 1009.1 hPa | - | - | - | - |
| 1778286711 | 28.33° C | 73% | 1009.1 hPa | - | - | - | - |
| 1778286106 | 28.33° C | 73% | 1009.1 hPa | - | - | - | - |
| 1778285501 | 28.33° C | 73% | 1009.1 hPa | - | - | - | - |
| 1778284290 | 28.33° C | 73% | 1009.1 hPa | - | - | - | - |
| 1778283686 | 28.33° C | 73% | 1009.1 hPa | - | - | - | - |
| 1778280057 | 28.33° C | 73% | 1009.1 hPa | - | - | - | - |
* Rain since midnight (hover to see other rain measurements)
** Current wind speed in m/s (hover to see current wind gust speed)